Time;durP1;ratioP1;P1;durP2;ratioP2;P2;SDS_P1;SDS_P2;PMS_P1;PMS_P2;Temp;Humidity;BMP_temperature;BMP_pressure;BME280_temperature;BME280_humidity;BME280_pressure;Samples;Min_cycle;Max_cycle;Signal;HPM_P1;HPM_P2
2023/06/07 00:00:56;;;;;;;15.80;7.60;;;18.30;78.50;;;;;;4978553;28;90786;-73
2023/06/07 00:03:21;;;;;;;11.07;7.00;;;18.30;78.40;;;;;;4988675;28;88668;-73
2023/06/07 00:05:47;;;;;;;12.25;7.30;;;18.30;78.80;;;;;;4988776;28;88979;-74
2023/06/07 00:08:13;;;;;;;19.40;7.78;;;18.30;78.50;;;;;;4988945;28;87623;-74
2023/06/07 00:10:39;;;;;;;15.65;7.30;;;18.30;78.90;;;;;;4988355;28;88010;-74
2023/06/07 00:13:05;;;;;;;13.60;7.57;;;18.30;78.70;;;;;;4969894;28;90872;-73
2023/06/07 00:15:30;;;;;;;13.63;7.25;;;18.20;78.90;;;;;;4987670;28;88007;-74
2023/06/07 00:18:00;;;;;;;16.30;7.47;;;18.20;79.30;;;;;;4987414;28;87953;-73
2023/06/07 00:20:30;;;;;;;18.52;7.32;;;18.20;79.20;;;;;;4987878;28;87777;-73
2023/06/07 00:22:55;;;;;;;15.18;7.60;;;18.20;78.90;;;;;;4988672;28;89169;-73
2023/06/07 00:25:22;;;;;;;16.98;7.95;;;18.20;79.10;;;;;;4978043;28;90753;-73
2023/06/07 00:27:48;;;;;;;14.13;7.68;;;18.20;78.90;;;;;;4988279;28;88703;-73
2023/06/07 00:30:14;;;;;;;16.17;7.85;;;18.20;79.00;;;;;;4989169;28;87600;-73
2023/06/07 00:32:39;;;;;;;13.32;6.95;;;18.20;78.90;;;;;;4989421;28;88663;-73
2023/06/07 00:35:07;;;;;;;12.55;7.75;;;18.20;79.40;;;;;;4988675;28;87614;-74
2023/06/07 00:37:33;;;;;;;14.80;7.55;;;18.10;79.20;;;;;;4977239;28;88143;-73
2023/06/07 00:39:58;;;;;;;11.73;6.88;;;18.10;79.30;;;;;;4989475;28;87912;-74
2023/06/07 00:42:24;;;;;;;13.15;7.90;;;18.10;79.70;;;;;;4988407;28;87556;-74
2023/06/07 00:44:50;;;;;;;18.88;8.25;;;18.10;79.80;;;;;;4960151;28;88766;-73
2023/06/07 00:47:16;;;;;;;15.57;8.27;;;18.10;79.90;;;;;;4975534;28;87609;-74
2023/06/07 00:49:43;;;;;;;15.05;8.20;;;18.00;80.10;;;;;;4987131;28;87456;-74
2023/06/07 00:52:10;;;;;;;15.55;7.93;;;18.00;80.10;;;;;;4988361;28;89181;-73
2023/06/07 00:54:35;;;;;;;14.75;8.40;;;17.90;80.10;;;;;;4987064;28;92484;-73
2023/06/07 00:57:02;;;;;;;13.10;7.38;;;18.00;80.50;;;;;;4988019;28;88429;-73
2023/06/07 00:59:27;;;;;;;17.65;8.15;;;17.90;79.70;;;;;;4988543;28;87896;-73
2023/06/07 01:01:55;;;;;;;20.05;9.10;;;17.90;80.50;;;;;;4987595;28;89072;-73
2023/06/07 01:04:21;;;;;;;22.60;9.20;;;17.80;80.50;;;;;;4987050;28;88942;-73
2023/06/07 01:06:47;;;;;;;13.35;7.60;;;17.80;80.50;;;;;;4987652;28;87809;-74
2023/06/07 01:09:14;;;;;;;18.42;7.97;;;17.80;80.70;;;;;;4987895;28;87225;-73
2023/06/07 01:11:49;;;;;;;13.77;7.70;;;17.80;80.00;;;;;;4957253;28;89792;-74
2023/06/07 01:14:15;;;;;;;16.58;7.22;;;17.70;81.30;;;;;;4973994;28;88583;-73
2023/06/07 01:16:44;;;;;;;15.05;8.45;;;17.60;80.00;;;;;;4986476;28;88738;-74
2023/06/07 01:19:17;;;;;;;17.88;9.13;;;17.60;81.20;;;;;;4986832;28;88309;-74
2023/06/07 01:21:45;;;;;;;16.25;8.32;;;17.50;81.80;;;;;;4987012;28;88220;-74
2023/06/07 01:24:11;;;;;;;16.33;8.65;;;17.40;81.90;;;;;;4988098;28;88121;-73
2023/06/07 01:26:37;;;;;;;18.95;8.85;;;17.30;82.40;;;;;;4988666;28;87480;-73
2023/06/07 01:29:07;;;;;;;16.55;9.32;;;17.20;81.60;;;;;;4989833;28;87815;-73
2023/06/07 01:31:37;;;;;;;16.73;7.90;;;17.20;82.20;;;;;;4987409;28;88078;-73
2023/06/07 01:34:04;;;;;;;21.38;8.23;;;17.10;82.40;;;;;;4988887;28;88298;-74
2023/06/07 01:36:31;;;;;;;17.67;7.88;;;17.10;82.20;;;;;;4986889;28;87726;-73
2023/06/07 01:38:59;;;;;;;18.63;8.27;;;17.00;82.00;;;;;;4988455;28;87622;-73
2023/06/07 01:41:28;;;;;;;18.38;8.80;;;17.00;82.50;;;;;;4987054;28;89310;-74
2023/06/07 01:43:54;;;;;;;18.27;8.85;;;17.00;83.20;;;;;;4987160;28;89328;-73
2023/06/07 01:46:20;;;;;;;24.25;8.13;;;16.90;82.50;;;;;;4970069;28;87685;-73
2023/06/07 01:48:46;;;;;;;12.98;7.70;;;16.90;82.90;;;;;;4988510;28;87525;-74
2023/06/07 01:51:11;;;;;;;23.02;9.15;;;16.80;83.10;;;;;;4989099;28;89186;-74
2023/06/07 01:53:37;;;;;;;14.70;7.65;;;16.80;83.40;;;;;;4989187;28;88826;-73
2023/06/07 01:56:39;;;;;;;18.85;8.75;;;16.80;82.70;;;;;;4990106;28;87722;-74
2023/06/07 01:59:08;;;;;;;13.90;7.57;;;16.70;82.40;;;;;;4988480;28;86587;-73
2023/06/07 02:01:43;;;;;;;17.33;8.07;;;16.70;83.40;;;;;;4989363;28;87867;-73
2023/06/07 02:04:11;;;;;;;17.55;8.23;;;16.70;82.80;;;;;;4989593;28;88789;-73
2023/06/07 02:06:40;;;;;;;15.85;8.25;;;16.60;83.60;;;;;;4969252;28;94271;-74
2023/06/07 02:09:12;;;;;;;15.80;7.85;;;16.60;84.30;;;;;;4968836;28;87792;-74
2023/06/07 02:11:42;;;;;;;23.17;8.93;;;16.60;84.90;;;;;;4970531;28;87700;-74
2023/06/07 02:14:08;;;;;;;20.00;8.82;;;16.50;85.90;;;;;;4968111;28;88625;-73
2023/06/07 02:16:38;;;;;;;15.02;7.93;;;16.50;85.40;;;;;;4969313;28;87794;-73
2023/06/07 02:19:06;;;;;;;13.48;8.23;;;16.40;85.90;;;;;;4970171;28;87448;-73
2023/06/07 02:21:36;;;;;;;19.63;9.32;;;16.40;85.90;;;;;;4966079;28;87626;-74
2023/06/07 02:24:02;;;;;;;20.70;8.68;;;16.40;85.80;;;;;;4952574;28;89037;-75
2023/06/07 02:26:29;;;;;;;17.25;8.45;;;16.30;85.80;;;;;;4968198;28;87415;-73
2023/06/07 02:28:55;;;;;;;15.82;8.25;;;16.30;86.60;;;;;;4967916;28;87569;-74
2023/06/07 02:31:20;;;;;;;18.52;8.93;;;16.30;85.80;;;;;;4967180;28;88636;-73
2023/06/07 02:33:50;;;;;;;18.45;9.35;;;16.30;86.40;;;;;;4966966;28;89313;-73
2023/06/07 02:36:21;;;;;;;15.77;8.50;;;16.20;86.50;;;;;;4970762;28;88149;-73
2023/06/07 02:38:47;;;;;;;15.20;7.57;;;16.20;85.90;;;;;;4971831;28;87455;-74
2023/06/07 02:41:12;;;;;;;15.80;7.72;;;16.20;86.70;;;;;;4970552;28;89893;-74
2023/06/07 02:43:38;;;;;;;15.63;8.45;;;16.10;86.30;;;;;;4971037;28;88409;-73
2023/06/07 02:46:03;;;;;;;17.92;8.93;;;16.20;85.70;;;;;;4973926;28;87705;-73
2023/06/07 02:48:29;;;;;;;15.40;7.75;;;16.20;86.70;;;;;;4973760;28;89294;-73
2023/06/07 02:50:55;;;;;;;15.57;8.48;;;16.20;86.60;;;;;;4970758;28;88761;-73
2023/06/07 02:53:20;;;;;;;18.48;7.80;;;16.10;86.70;;;;;;4970103;28;88198;-73
2023/06/07 02:55:46;;;;;;;20.77;8.90;;;16.10;87.30;;;;;;4971530;28;88403;-73
2023/06/07 02:58:13;;;;;;;15.82;8.90;;;16.00;87.50;;;;;;4971187;28;87940;-73
2023/06/07 03:00:39;;;;;;;20.17;8.18;;;16.00;87.50;;;;;;4971773;28;88740;-73
2023/06/07 03:03:05;;;;;;;20.02;9.07;;;16.00;86.60;;;;;;4970956;28;89065;-73
2023/06/07 03:05:31;;;;;;;20.27;9.05;;;16.00;87.50;;;;;;4969890;28;87746;-73
2023/06/07 03:08:00;;;;;;;19.63;9.32;;;16.00;87.00;;;;;;4970011;28;87657;-73
2023/06/07 03:10:26;;;;;;;15.43;7.78;;;16.00;87.40;;;;;;4969395;28;87796;-73
2023/06/07 03:12:51;;;;;;;12.90;7.85;;;16.00;86.70;;;;;;4969466;28;87972;-73
2023/06/07 03:15:17;;;;;;;14.15;8.48;;;16.00;86.80;;;;;;4970112;28;87752;-73
2023/06/07 03:17:43;;;;;;;17.17;8.10;;;16.00;86.60;;;;;;4970198;28;87522;-73
2023/06/07 03:20:09;;;;;;;15.27;8.15;;;16.00;86.80;;;;;;4969310;28;89175;-72
2023/06/07 03:22:36;;;;;;;17.30;8.27;;;16.00;87.40;;;;;;4970690;28;90393;-73
2023/06/07 03:25:03;;;;;;;15.38;8.75;;;16.00;86.80;;;;;;4970964;28;88081;-73
2023/06/07 03:27:32;;;;;;;17.08;7.90;;;16.00;87.50;;;;;;4971618;28;87789;-74
2023/06/07 03:29:58;;;;;;;19.63;9.05;;;16.00;87.20;;;;;;4971901;28;87746;-73
2023/06/07 03:32:23;;;;;;;16.65;8.52;;;16.00;87.20;;;;;;4972418;28;88074;-73
2023/06/07 03:34:49;;;;;;;21.55;9.43;;;16.00;87.20;;;;;;4971692;28;87895;-74
2023/06/07 03:37:16;;;;;;;19.20;8.77;;;16.00;87.80;;;;;;4972737;28;86760;-73
2023/06/07 03:39:42;;;;;;;18.38;8.38;;;15.90;87.30;;;;;;4989952;28;88257;-73
2023/06/07 03:42:08;;;;;;;17.70;8.35;;;15.90;87.50;;;;;;4991467;28;87718;-73
2023/06/07 03:44:33;;;;;;;23.98;8.50;;;15.90;87.30;;;;;;4991003;28;88600;-73
2023/06/07 03:46:59;;;;;;;17.45;8.40;;;15.90;87.00;;;;;;4989271;28;87879;-73
2023/06/07 03:49:25;;;;;;;18.08;7.55;;;15.90;87.40;;;;;;4992348;28;88640;-74
2023/06/07 03:51:51;;;;;;;13.68;7.18;;;15.90;86.70;;;;;;4992836;28;88468;-73
2023/06/07 03:54:16;;;;;;;19.77;8.73;;;15.90;86.60;;;;;;4991892;28;87454;-74
2023/06/07 03:56:42;;;;;;;15.48;8.30;;;15.90;87.40;;;;;;4991574;28;87341;-73
2023/06/07 03:59:08;;;;;;;17.38;7.90;;;15.90;86.90;;;;;;4991939;28;87753;-73
2023/06/07 04:01:34;;;;;;;16.63;7.95;;;15.90;87.10;;;;;;4990421;28;87832;-74
2023/06/07 04:04:00;;;;;;;20.45;9.05;;;15.90;87.50;;;;;;4965994;28;87584;-73
2023/06/07 04:06:26;;;;;;;18.40;8.25;;;15.90;87.90;;;;;;4989194;28;88293;-74
2023/06/07 04:08:52;;;;;;;17.95;7.88;;;15.90;87.50;;;;;;4991978;28;89481;-73
2023/06/07 04:11:19;;;;;;;18.10;8.98;;;15.90;87.40;;;;;;4999109;28;89795;-73
2023/06/07 04:13:44;;;;;;;18.20;8.50;;;15.90;87.20;;;;;;4964243;28;87838;-73
2023/06/07 04:16:10;;;;;;;19.70;9.20;;;15.80;86.90;;;;;;4994265;28;87831;-73
2023/06/07 04:18:36;;;;;;;21.73;8.60;;;15.90;86.80;;;;;;4992301;28;88607;-73
2023/06/07 04:21:02;;;;;;;15.82;8.90;;;15.90;86.50;;;;;;4995566;28;93318;-74
2023/06/07 04:23:27;;;;;;;16.15;8.18;;;16.00;86.70;;;;;;4974329;28;87457;-74
2023/06/07 04:25:54;;;;;;;16.75;8.77;;;16.00;86.60;;;;;;4992095;28;86921;-73
2023/06/07 04:28:23;;;;;;;20.58;8.55;;;16.00;86.30;;;;;;4991303;28;87638;-74
2023/06/07 04:30:51;;;;;;;16.35;9.02;;;16.10;86.10;;;;;;4992516;28;88042;-74
2023/06/07 04:33:18;;;;;;;17.90;8.45;;;16.20;85.60;;;;;;4990351;28;88306;-74
2023/06/07 04:35:44;;;;;;;17.20;9.32;;;16.20;85.50;;;;;;4991019;28;87105;-73
2023/06/07 04:38:21;;;;;;;23.75;9.38;;;16.20;85.60;;;;;;4989991;28;87566;-73
2023/06/07 04:40:49;;;;;;;22.15;9.38;;;16.20;85.50;;;;;;4990977;28;87596;-73
2023/06/07 04:43:18;;;;;;;15.68;8.98;;;16.20;84.70;;;;;;4990182;28;87355;-72
2023/06/07 04:45:47;;;;;;;15.02;7.78;;;16.20;84.60;;;;;;4990800;28;87883;-73
2023/06/07 04:48:13;;;;;;;18.15;8.68;;;16.30;85.20;;;;;;4990733;28;88282;-73
2023/06/07 04:50:41;;;;;;;21.23;9.40;;;16.30;84.70;;;;;;4989141;28;86704;-73
2023/06/07 04:53:10;;;;;;;17.10;8.75;;;16.30;84.70;;;;;;4989810;28;88579;-73
2023/06/07 04:55:37;;;;;;;15.98;8.63;;;16.40;85.20;;;;;;4990088;28;87687;-74
2023/06/07 04:58:05;;;;;;;18.27;9.48;;;16.30;84.50;;;;;;4989854;28;89365;-73
2023/06/07 05:00:31;;;;;;;18.17;9.48;;;16.30;85.30;;;;;;4979571;28;89662;-73
2023/06/07 05:03:06;;;;;;;16.98;8.80;;;16.30;84.70;;;;;;4990204;28;88093;-73
2023/06/07 05:05:33;;;;;;;21.42;11.18;;;16.20;85.00;;;;;;4990059;28;87626;-73
2023/06/07 05:07:58;;;;;;;18.58;9.77;;;16.20;85.30;;;;;;4991386;28;88568;-73
2023/06/07 05:10:27;;;;;;;16.30;9.50;;;16.10;85.50;;;;;;4997719;28;87526;-74
2023/06/07 05:12:52;;;;;;;17.88;9.65;;;16.10;85.00;;;;;;4994807;28;87333;-73
2023/06/07 05:15:18;;;;;;;16.02;9.10;;;16.10;85.70;;;;;;4996397;28;86790;-73
2023/06/07 05:17:46;;;;;;;17.73;9.50;;;16.10;86.00;;;;;;4976226;28;89202;-73
2023/06/07 05:20:12;;;;;;;20.17;9.23;;;16.10;85.90;;;;;;4994581;28;87999;-73
2023/06/07 05:22:41;;;;;;;21.20;10.45;;;16.00;86.40;;;;;;4994308;28;88842;-73
2023/06/07 05:25:08;;;;;;;15.98;9.85;;;16.00;86.40;;;;;;4995366;28;87756;-73
2023/06/07 05:27:35;;;;;;;14.65;9.65;;;16.00;86.90;;;;;;4991741;28;87701;-73
2023/06/07 05:30:03;;;;;;;19.15;10.85;;;16.10;87.00;;;;;;4988723;28;87313;-73
2023/06/07 05:32:29;;;;;;;20.80;10.35;;;16.10;86.80;;;;;;4986779;28;87586;-73
2023/06/07 05:34:57;;;;;;;17.80;9.85;;;16.20;85.90;;;;;;4988214;28;88008;-73
2023/06/07 05:37:24;;;;;;;17.88;9.85;;;16.30;86.40;;;;;;4988743;28;90134;-73
2023/06/07 05:39:49;;;;;;;17.10;10.25;;;16.30;86.80;;;;;;4990830;28;87799;-74
2023/06/07 05:42:15;;;;;;;13.70;9.52;;;16.30;86.10;;;;;;4990611;28;87452;-73
2023/06/07 05:44:41;;;;;;;16.88;9.40;;;16.30;86.00;;;;;;4994942;28;87713;-74
2023/06/07 05:47:07;;;;;;;21.05;10.55;;;16.40;85.30;;;;;;4961299;28;91247;-73
2023/06/07 05:49:32;;;;;;;18.25;10.52;;;16.50;85.20;;;;;;4992370;28;88854;-73
2023/06/07 05:51:58;;;;;;;21.38;11.57;;;16.50;85.00;;;;;;4992122;28;87385;-74
2023/06/07 05:54:24;;;;;;;20.60;11.10;;;16.50;85.10;;;;;;4987163;28;88007;-73
2023/06/07 05:56:50;;;;;;;20.33;10.90;;;16.50;84.40;;;;;;4989479;28;88689;-73
2023/06/07 05:59:16;;;;;;;17.60;10.65;;;16.60;84.40;;;;;;4988375;28;89276;-73
2023/06/07 06:01:44;;;;;;;19.67;11.30;;;16.70;85.20;;;;;;4959874;28;87609;-73
2023/06/07 06:04:10;;;;;;;24.20;12.73;;;16.80;84.30;;;;;;4989642;28;88151;-74
2023/06/07 06:06:38;;;;;;;23.02;13.00;;;16.90;83.70;;;;;;4986291;28;88527;-73
2023/06/07 06:09:05;;;;;;;21.05;12.60;;;17.00;83.60;;;;;;4987687;28;88631;-73
2023/06/07 06:11:30;;;;;;;18.83;11.98;;;17.00;82.50;;;;;;4991636;28;88896;-73
2023/06/07 06:13:56;;;;;;;20.13;12.02;;;17.20;82.60;;;;;;4986991;28;87607;-74
2023/06/07 06:16:22;;;;;;;21.02;11.75;;;17.30;82.60;;;;;;4972508;28;88222;-73
2023/06/07 06:18:47;;;;;;;23.40;12.93;;;17.50;82.40;;;;;;4990455;28;89031;-74
2023/06/07 06:21:13;;;;;;;18.85;12.20;;;17.60;80.20;;;;;;4993005;28;87671;-73
2023/06/07 06:23:39;;;;;;;18.50;10.35;;;17.50;80.10;;;;;;4992123;28;87913;-74
2023/06/07 06:26:04;;;;;;;23.92;12.02;;;17.50;80.10;;;;;;4991706;28;88661;-73
2023/06/07 06:28:30;;;;;;;23.73;12.88;;;17.60;79.90;;;;;;4991698;28;87922;-73
2023/06/07 06:30:55;;;;;;;18.17;12.38;;;17.60;80.60;;;;;;4992331;28;87562;-73
2023/06/07 06:33:21;;;;;;;21.40;12.30;;;17.60;80.50;;;;;;4991745;28;87650;-73
2023/06/07 06:35:47;;;;;;;21.75;12.05;;;17.60;80.20;;;;;;4990140;28;90055;-73
2023/06/07 06:38:13;;;;;;;18.45;12.38;;;17.60;80.00;;;;;;4991578;28;88273;-73
2023/06/07 06:40:39;;;;;;;19.88;12.50;;;17.70;80.50;;;;;;4990838;28;87799;-74
2023/06/07 06:43:05;;;;;;;19.42;12.45;;;17.80;79.90;;;;;;4991877;28;88158;-73
2023/06/07 06:45:31;;;;;;;19.95;12.93;;;17.80;79.50;;;;;;4990966;28;87942;-74
2023/06/07 06:47:58;;;;;;;21.17;12.30;;;17.80;79.60;;;;;;4990381;28;88085;-73
2023/06/07 06:50:24;;;;;;;23.13;12.65;;;17.80;79.80;;;;;;4994328;28;87851;-77
2023/06/07 06:52:50;;;;;;;20.85;12.77;;;17.80;79.60;;;;;;4997491;28;87143;-76
2023/06/07 06:55:15;;;;;;;24.70;12.38;;;17.70;79.20;;;;;;4996969;28;87600;-76
2023/06/07 06:57:41;;;;;;;20.77;12.73;;;17.70;80.00;;;;;;4995375;28;88586;-76
2023/06/07 07:00:11;;;;;;;24.35;12.80;;;17.70;79.20;;;;;;4995937;28;88557;-76
2023/06/07 07:02:37;;;;;;;24.10;12.10;;;17.80;79.30;;;;;;4977579;28;91203;-76
2023/06/07 07:05:05;;;;;;;24.33;13.25;;;17.90;79.70;;;;;;4978419;28;90323;-77
2023/06/07 07:07:33;;;;;;;19.27;12.35;;;18.10;79.60;;;;;;4978856;28;91507;-76
2023/06/07 07:09:59;;;;;;;21.27;12.40;;;18.10;78.10;;;;;;4997000;28;87723;-75
2023/06/07 07:12:26;;;;;;;19.48;11.95;;;18.20;78.60;;;;;;4994018;28;88955;-76
2023/06/07 07:14:51;;;;;;;20.67;13.05;;;18.20;79.00;;;;;;4994789;28;88476;-75
2023/06/07 07:17:17;;;;;;;25.50;12.82;;;18.30;79.10;;;;;;4996507;28;88425;-76
2023/06/07 07:19:43;;;;;;;25.30;11.73;;;18.40;78.60;;;;;;4996992;28;87641;-75
2023/06/07 07:22:09;;;;;;;25.27;13.20;;;18.50;78.80;;;;;;4996458;28;87873;-75
2023/06/07 07:24:34;;;;;;;21.88;11.52;;;18.50;78.10;;;;;;4995919;28;88948;-76
2023/06/07 07:27:00;;;;;;;26.52;13.73;;;18.60;78.10;;;;;;4994402;28;91731;-76
2023/06/07 07:29:26;;;;;;;25.48;13.95;;;18.70;78.20;;;;;;4993661;28;88040;-76
2023/06/07 07:31:51;;;;;;;23.50;12.93;;;18.80;76.60;;;;;;4996332;28;88028;-76
2023/06/07 07:34:17;;;;;;;25.13;12.98;;;18.80;76.70;;;;;;4996667;28;88139;-75
2023/06/07 07:36:44;;;;;;;25.33;12.50;;;18.90;76.30;;;;;;4995973;28;88897;-76
2023/06/07 07:39:15;;;;;;;17.52;11.48;;;18.90;76.50;;;;;;4994841;28;87749;-76
2023/06/07 07:41:41;;;;;;;26.67;12.95;;;19.10;76.40;;;;;;4996207;28;87504;-75
2023/06/07 07:44:07;;;;;;;18.73;12.00;;;19.40;75.80;;;;;;4995756;28;92402;-76
2023/06/07 07:46:33;;;;;;;21.45;12.07;;;19.70;76.10;;;;;;4995669;28;88382;-76
2023/06/07 07:48:59;;;;;;;24.98;13.20;;;20.10;73.20;;;;;;4996764;28;88522;-76
2023/06/07 07:51:25;;;;;;;21.85;12.60;;;20.40;72.60;;;;;;4995437;28;87947;-76
2023/06/07 07:53:53;;;;;;;22.45;12.90;;;20.50;71.30;;;;;;4995488;28;87730;-76
2023/06/07 07:56:23;;;;;;;23.15;12.43;;;20.50;71.50;;;;;;4995590;28;88581;-76
2023/06/07 07:58:49;;;;;;;22.25;13.20;;;20.60;71.50;;;;;;4994090;28;87807;-75
2023/06/07 08:01:16;;;;;;;20.23;9.93;;;20.70;71.50;;;;;;4995918;28;87704;-74
2023/06/07 08:03:42;;;;;;;20.83;10.18;;;20.70;70.00;;;;;;4995271;28;88138;-75
2023/06/07 08:06:08;;;;;;;17.55;9.93;;;20.80;69.10;;;;;;4995148;28;88477;-75
2023/06/07 08:08:34;;;;;;;20.08;12.00;;;20.90;69.90;;;;;;4995056;28;87922;-75
2023/06/07 08:11:00;;;;;;;20.98;11.75;;;21.00;70.10;;;;;;4995281;28;87677;-75
2023/06/07 08:13:26;;;;;;;19.55;10.82;;;21.00;69.70;;;;;;4993481;28;89116;-75
2023/06/07 08:15:51;;;;;;;19.20;10.60;;;21.10;69.30;;;;;;4994627;28;88260;-74
2023/06/07 08:18:17;;;;;;;19.55;11.20;;;21.30;69.00;;;;;;4994396;28;87804;-75
2023/06/07 08:20:43;;;;;;;17.08;12.15;;;21.40;68.30;;;;;;4976285;28;88926;-75
2023/06/07 08:23:09;;;;;;;20.13;11.07;;;21.50;67.20;;;;;;4995520;28;89131;-74
2023/06/07 08:25:34;;;;;;;18.23;9.85;;;21.50;67.40;;;;;;4995196;28;88043;-74
2023/06/07 08:28:00;;;;;;;19.88;10.32;;;21.70;67.40;;;;;;4996696;28;87703;-74
2023/06/07 08:30:26;;;;;;;19.95;11.70;;;21.90;66.10;;;;;;4995006;28;87036;-74
2023/06/07 08:32:51;;;;;;;15.60;11.68;;;22.30;67.00;;;;;;4994692;28;89196;-75
2023/06/07 08:35:17;;;;;;;19.85;10.88;;;22.60;66.20;;;;;;4994747;28;90795;-75
2023/06/07 08:37:43;;;;;;;22.42;12.27;;;22.90;66.20;;;;;;4995155;28;89233;-75
2023/06/07 08:40:09;;;;;;;24.33;10.82;;;23.20;62.90;;;;;;4995897;28;87358;-75
2023/06/07 08:42:38;;;;;;;21.63;12.32;;;23.30;62.60;;;;;;4994521;28;88558;-75
2023/06/07 08:45:04;;;;;;;19.65;10.75;;;23.50;62.10;;;;;;4995367;28;88908;-74
2023/06/07 08:47:33;;;;;;;19.88;11.13;;;23.70;61.60;;;;;;4994707;28;87547;-74
2023/06/07 08:50:00;;;;;;;18.52;9.77;;;23.90;61.20;;;;;;4993885;28;87825;-75
2023/06/07 08:52:26;;;;;;;20.83;11.45;;;24.00;61.30;;;;;;4994340;28;89213;-74
2023/06/07 08:54:58;;;;;;;17.45;9.68;;;24.20;59.90;;;;;;4994392;28;89271;-74
2023/06/07 08:57:24;;;;;;;18.63;11.40;;;24.10;59.70;;;;;;4995103;28;87875;-74
2023/06/07 08:59:51;;;;;;;16.95;11.63;;;24.00;59.60;;;;;;4994555;28;88105;-74
2023/06/07 09:02:16;;;;;;;17.27;8.93;;;24.00;60.10;;;;;;4992087;28;91389;-74
2023/06/07 09:04:43;;;;;;;17.30;10.18;;;24.20;61.20;;;;;;4995149;28;89229;-74
2023/06/07 09:07:09;;;;;;;16.75;9.48;;;24.40;60.50;;;;;;4995037;28;87510;-74
2023/06/07 09:09:36;;;;;;;19.92;11.85;;;24.50;60.20;;;;;;4993951;28;87669;-74
2023/06/07 09:12:02;;;;;;;17.83;10.82;;;24.50;59.20;;;;;;4994234;28;88972;-74
2023/06/07 09:14:31;;;;;;;13.77;8.65;;;24.50;60.00;;;;;;4993774;28;88825;-74
2023/06/07 09:16:59;;;;;;;21.73;10.70;;;24.70;58.90;;;;;;4994820;28;87962;-74
2023/06/07 09:19:38;;;;;;;18.85;10.15;;;25.00;58.60;;;;;;4995387;28;86998;-75
2023/06/07 09:22:05;;;;;;;17.13;9.77;;;25.00;58.70;;;;;;4993448;28;92473;-74
2023/06/07 09:24:32;;;;;;;12.63;8.63;;;25.00;59.50;;;;;;4993819;28;88293;-75
2023/06/07 09:27:00;;;;;;;17.75;9.45;;;25.00;58.50;;;;;;4994270;28;88901;-75
2023/06/07 09:29:29;;;;;;;14.70;10.30;;;25.10;58.40;;;;;;4976940;28;88115;-75
2023/06/07 09:32:17;;;;;;;17.80;9.98;;;25.10;58.20;;;;;;4993698;28;88552;-75
2023/06/07 09:34:43;;;;;;;22.63;11.13;;;25.30;58.10;;;;;;4993558;28;88903;-75
2023/06/07 09:37:09;;;;;;;15.85;9.40;;;25.30;56.60;;;;;;4994034;28;89706;-75
2023/06/07 09:39:37;;;;;;;16.30;9.18;;;25.40;57.50;;;;;;4994680;28;87304;-74
2023/06/07 09:42:16;;;;;;;15.63;10.40;;;25.50;57.60;;;;;;4989744;28;88499;-74
2023/06/07 09:44:42;;;;;;;19.23;11.15;;;25.60;56.80;;;;;;4992659;28;93515;-75
2023/06/07 09:47:29;;;;;;;12.95;8.23;;;25.80;55.50;;;;;;4993939;28;87610;-76
2023/06/07 09:50:06;;;;;;;16.33;9.00;;;25.80;57.20;;;;;;4994505;28;90419;-76
2023/06/07 09:52:32;;;;;;;19.02;10.10;;;25.90;56.70;;;;;;4994121;28;89392;-76
2023/06/07 09:54:58;;;;;;;17.05;9.32;;;26.00;55.40;;;;;;4994405;28;89375;-76
2023/06/07 09:57:23;;;;;;;17.55;10.93;;;25.90;56.10;;;;;;4995079;28;87495;-76
2023/06/07 09:59:58;;;;;;;16.60;10.40;;;26.00;55.50;;;;;;4993645;28;87794;-76
2023/06/07 10:02:28;;;;;;;15.80;9.38;;;26.00;55.70;;;;;;4993293;28;87688;-76
2023/06/07 10:04:56;;;;;;;14.30;9.82;;;26.20;56.80;;;;;;4993330;28;88354;-76
2023/06/07 10:07:23;;;;;;;17.88;10.73;;;26.40;56.60;;;;;;4995389;28;87823;-76
2023/06/07 10:09:58;;;;;;;14.13;9.05;;;26.70;56.20;;;;;;4992120;28;91276;-76
2023/06/07 10:12:28;;;;;;;18.52;10.45;;;27.10;56.50;;;;;;4993841;28;88190;-76
2023/06/07 10:14:54;;;;;;;20.83;10.90;;;27.40;55.50;;;;;;4975195;28;90256;-77
2023/06/07 10:17:28;;;;;;;14.35;9.75;;;27.50;54.70;;;;;;4975078;28;88546;-76
2023/06/07 10:19:59;;;;;;;;;;;27.50;55.00;;;;;;4976250;28;89054;-76
2023/06/07 10:22:32;;;;;;;13.60;8.18;;;27.80;54.70;;;;;;4978362;28;90046;-76
2023/06/07 10:25:08;;;;;;;;;;;28.00;53.80;;;;;;4993076;28;93251;-74
2023/06/07 10:27:48;;;;;;;14.77;7.97;;;28.20;54.10;;;;;;4993615;28;87463;-74
2023/06/07 10:30:16;;;;;;;16.42;7.72;;;28.30;53.00;;;;;;4991183;28;88365;-74
2023/06/07 10:32:44;;;;;;;14.90;7.20;;;28.50;53.40;;;;;;4991757;28;89176;-74
2023/06/07 10:35:11;;;;;;;16.92;8.60;;;28.60;52.70;;;;;;4991861;28;87926;-74
2023/06/07 10:37:37;;;;;;;14.60;8.13;;;28.70;52.40;;;;;;4992454;28;87324;-74
2023/06/07 10:40:09;;;;;;;16.35;8.90;;;28.90;51.50;;;;;;4992921;28;87642;-74
2023/06/07 10:42:36;;;;;;;14.52;8.18;;;29.00;51.50;;;;;;4990747;28;89065;-74
2023/06/07 10:45:02;;;;;;;18.95;9.68;;;29.10;51.80;;;;;;4992292;28;88485;-74
2023/06/07 10:47:31;;;;;;;14.45;9.60;;;28.80;50.50;;;;;;4992539;28;87134;-74
2023/06/07 10:49:57;;;;;;;13.52;8.88;;;28.30;51.10;;;;;;4974116;28;89050;-73
2023/06/07 10:52:26;;;;;;;11.73;8.25;;;28.00;52.10;;;;;;4992272;28;88400;-74
2023/06/07 10:54:52;;;;;;;17.42;9.68;;;27.80;51.90;;;;;;4991355;28;88945;-74
2023/06/07 10:57:38;;;;;;;13.45;8.00;;;27.50;53.30;;;;;;4993514;28;87668;-73
2023/06/07 11:00:30;;;;;;;12.73;8.35;;;27.20;53.50;;;;;;4983845;28;90380;-74
2023/06/07 11:03:04;;;;;;;15.18;7.82;;;27.10;54.10;;;;;;4993934;28;89163;-74
2023/06/07 11:05:49;;;;;;;17.60;8.38;;;26.80;54.20;;;;;;4993887;28;87930;-74
2023/06/07 11:08:31;;;;;;;16.40;8.38;;;26.70;54.50;;;;;;4972686;28;88845;-73
2023/06/07 11:11:00;;;;;;;14.38;9.85;;;26.40;54.50;;;;;;4991290;28;87635;-75
2023/06/07 11:13:26;;;;;;;18.55;8.95;;;26.10;54.80;;;;;;4991881;28;88186;-75
2023/06/07 11:15:52;;;;;;;18.10;10.15;;;25.80;55.60;;;;;;4990491;28;95162;-75
2023/06/07 11:18:18;;;;;;;22.65;8.85;;;25.70;55.60;;;;;;4992119;28;87760;-75
2023/06/07 11:20:45;;;;;;;18.65;9.77;;;25.40;56.60;;;;;;4992244;28;88457;-75
2023/06/07 11:23:34;;;;;;;12.20;7.80;;;25.20;56.90;;;;;;4992308;28;88538;-75
2023/06/07 11:26:08;;;;;;;16.67;8.55;;;25.30;57.20;;;;;;4995746;28;88842;-75
2023/06/07 11:28:37;;;;;;;15.57;8.55;;;25.50;57.20;;;;;;4995480;28;87599;-75
2023/06/07 11:31:03;;;;;;;15.13;8.45;;;25.60;57.00;;;;;;4995755;28;87765;-75
2023/06/07 11:33:30;;;;;;;15.07;9.95;;;25.60;57.20;;;;;;4995235;28;88779;-75
2023/06/07 11:35:56;;;;;;;16.38;8.45;;;25.60;56.30;;;;;;4985596;28;92766;-75
2023/06/07 11:38:23;;;;;;;19.67;9.70;;;25.50;56.80;;;;;;4996206;28;87944;-75
2023/06/07 11:40:49;;;;;;;17.02;9.25;;;25.40;57.00;;;;;;4995640;28;87527;-75
2023/06/07 11:43:20;;;;;;;18.98;8.00;;;25.40;57.40;;;;;;4995538;28;88400;-75
2023/06/07 11:45:46;;;;;;;20.58;8.32;;;25.40;57.70;;;;;;4995766;28;89248;-76
2023/06/07 11:48:12;;;;;;;18.75;8.75;;;25.50;57.50;;;;;;4995974;28;87750;-75
2023/06/07 11:50:40;;;;;;;14.15;8.63;;;25.50;57.30;;;;;;4996694;28;87372;-74
2023/06/07 11:53:10;;;;;;;19.17;9.00;;;25.40;57.80;;;;;;4995380;28;88169;-75
2023/06/07 11:55:37;;;;;;;14.38;8.35;;;25.30;57.80;;;;;;4996171;28;87910;-75
2023/06/07 11:58:04;;;;;;;14.50;9.25;;;25.10;58.10;;;;;;4996507;28;88559;-75
2023/06/07 12:00:31;;;;;;;14.98;9.25;;;25.00;58.10;;;;;;4996323;28;87940;-75
2023/06/07 12:02:58;;;;;;;18.15;8.85;;;24.90;58.00;;;;;;4994118;28;92139;-75
2023/06/07 12:05:30;;;;;;;14.18;8.20;;;24.80;59.30;;;;;;4995959;28;88198;-75
2023/06/07 12:08:22;;;;;;;18.40;8.75;;;24.80;59.10;;;;;;4995935;28;87731;-75
2023/06/07 12:10:54;;;;;;;15.57;7.38;;;24.70;59.80;;;;;;4995800;28;87485;-75
2023/06/07 12:13:21;;;;;;;16.20;8.70;;;24.70;60.80;;;;;;4996543;28;87635;-75
2023/06/07 12:15:57;;;;;;;17.42;7.82;;;24.50;61.20;;;;;;4996657;28;88536;-75
2023/06/07 12:18:30;;;;;;;15.35;9.73;;;24.40;62.30;;;;;;4995913;28;87614;-75
2023/06/07 12:21:10;;;;;;;19.80;10.43;;;24.30;63.60;;;;;;4995338;28;87914;-74
2023/06/07 12:23:57;;;;;;;14.75;8.82;;;24.30;63.30;;;;;;4984693;28;90864;-74
2023/06/07 12:26:26;;;;;;;13.95;8.38;;;24.20;64.10;;;;;;4994547;28;88838;-75
2023/06/07 12:28:52;;;;;;;17.48;8.73;;;24.20;64.20;;;;;;4995526;28;87979;-75
2023/06/07 12:31:24;;;;;;;15.15;9.05;;;24.30;64.10;;;;;;4996303;28;87645;-75
2023/06/07 12:34:10;;;;;;;18.17;9.32;;;24.40;63.90;;;;;;4992954;28;91889;-75
2023/06/07 12:36:38;;;;;;;13.70;8.07;;;24.50;64.30;;;;;;4995427;28;87502;-75